Time;durP1;ratioP1;P1;durP2;ratioP2;P2;SDS_P1;SDS_P2;PMS_P1;PMS_P2;Temp;Humidity;BMP_temperature;BMP_pressure;BME280_temperature;BME280_humidity;BME280_pressure;Samples;Min_cycle;Max_cycle;Signal;HPM_P1;HPM_P2
2022/08/12 00:44:27;;;;;;;4.85;1.95;;;24.70;52.80;;;;;;4989791;28;20045;-75
2022/08/12 00:46:57;;;;;;;6.28;1.90;;;24.70;52.90;;;;;;4954394;28;20109;-75
2022/08/12 00:49:24;;;;;;;3.28;1.60;;;24.60;53.20;;;;;;4954449;28;20018;-74
2022/08/12 00:52:10;;;;;;;3.95;1.70;;;24.50;52.90;;;;;;4971547;28;20042;-75
2022/08/12 00:54:55;;;;;;;4.97;1.70;;;24.50;53.20;;;;;;4971177;28;20027;-74
2022/08/12 00:57:23;;;;;;;3.80;1.20;;;24.40;53.50;;;;;;4971544;28;20029;-75
2022/08/12 00:59:56;;;;;;;3.35;1.73;;;24.40;53.60;;;;;;4971471;28;20036;-75
2022/08/12 01:02:25;;;;;;;3.53;1.73;;;24.40;53.80;;;;;;4971276;28;20030;-74
2022/08/12 01:13:17;;;;;;;4.38;2.10;;;24.20;54.20;;;;;;4971702;28;20554;-74
2022/08/12 01:15:48;;;;;;;3.42;1.70;;;24.10;54.10;;;;;;4971114;28;20034;-74
2022/08/12 01:18:15;;;;;;;4.03;1.50;;;24.10;55.00;;;;;;4971420;28;20073;-75
2022/08/12 01:20:56;;;;;;;3.80;1.88;;;24.00;54.40;;;;;;4988506;28;20035;-75
2022/08/12 01:23:58;;;;;;;7.47;2.13;;;24.00;54.60;;;;;;4990478;28;20030;-74
2022/08/12 01:26:24;;;;;;;5.30;1.77;;;23.90;54.70;;;;;;4990606;28;20034;-75
2022/08/12 01:28:58;;;;;;;4.88;1.80;;;23.90;54.90;;;;;;4989963;28;20033;-75
2022/08/12 01:31:25;;;;;;;6.72;2.10;;;23.80;55.00;;;;;;4988066;28;20137;-77
2022/08/12 01:34:05;;;;;;;4.45;2.10;;;23.80;55.10;;;;;;4989738;28;20397;-73
2022/08/12 01:36:49;;;;;;;5.43;2.00;;;23.80;55.20;;;;;;4979812;28;20393;-75
2022/08/12 01:39:16;;;;;;;2.45;1.40;;;23.70;55.30;;;;;;4970798;28;20022;-75
2022/08/12 01:41:51;;;;;;;2.28;1.27;;;23.70;55.40;;;;;;4970441;28;20023;-75
2022/08/12 01:44:17;;;;;;;4.05;2.28;;;23.70;55.50;;;;;;4974062;28;20034;-75
2022/08/12 01:46:47;;;;;;;3.53;2.17;;;23.70;55.60;;;;;;4986201;28;20042;-76
2022/08/12 01:49:16;;;;;;;;;;;23.60;55.60;;;;;;4971192;28;20031;-73
2022/08/12 01:51:45;;;;;;;3.40;1.58;;;23.60;55.60;;;;;;4970472;28;19906;-73
2022/08/12 01:54:15;;;;;;;8.13;2.42;;;23.60;55.70;;;;;;4994751;28;20117;-75
2022/08/12 01:57:16;;;;;;;4.68;2.13;;;23.50;56.20;;;;;;5004349;28;20025;-74
2022/08/12 01:59:58;;;;;;;6.65;2.20;;;23.40;56.20;;;;;;4953243;28;20035;-75
2022/08/12 02:02:26;;;;;;;5.57;1.85;;;23.40;56.60;;;;;;4970817;28;20035;-75
2022/08/12 02:11:18;;;;;;;7.47;2.42;;;23.30;56.50;;;;;;4971034;28;20089;-74
2022/08/12 02:14:05;;;;;;;5.57;2.20;;;23.20;56.90;;;;;;4970225;28;20121;-74
2022/08/12 02:17:16;;;;;;;3.90;2.28;;;23.20;57.10;;;;;;4970577;28;20405;-74
2022/08/12 02:20:07;;;;;;;3.17;1.63;;;23.20;57.00;;;;;;4970705;28;20082;-74
2022/08/12 02:22:38;;;;;;;5.50;2.20;;;23.10;57.20;;;;;;4969850;28;20042;-75
2022/08/12 02:25:11;;;;;;;3.53;1.73;;;23.00;57.40;;;;;;4970292;28;20042;-75
2022/08/12 02:27:44;;;;;;;4.43;2.22;;;23.00;57.30;;;;;;4971396;28;20030;-74
2022/08/12 02:30:13;;;;;;;5.05;2.05;;;23.10;57.30;;;;;;4972037;28;20035;-75
2022/08/12 02:32:43;;;;;;;3.72;2.03;;;23.00;57.40;;;;;;4972448;28;20026;-75
2022/08/12 02:35:13;;;;;;;6.22;2.20;;;23.00;57.60;;;;;;4971277;28;20843;-75
2022/08/12 02:37:40;;;;;;;4.68;1.75;;;23.00;57.80;;;;;;4970197;28;20037;-74
2022/08/12 02:40:09;;;;;;;4.30;1.95;;;22.90;57.50;;;;;;4971986;28;20026;-74
2022/08/12 02:42:37;;;;;;;5.90;2.20;;;22.90;57.60;;;;;;4980626;28;20027;-74
2022/08/12 02:45:07;;;;;;;6.93;2.38;;;22.90;58.00;;;;;;4993615;28;20401;-75
2022/08/12 02:47:41;;;;;;;3.88;1.90;;;22.90;58.20;;;;;;4992638;28;20051;-75
2022/08/12 02:50:09;;;;;;;5.35;2.20;;;22.90;58.20;;;;;;4993647;28;20026;-75
2022/08/12 02:52:35;;;;;;;5.30;2.22;;;22.90;57.70;;;;;;4988321;28;20027;-74
2022/08/12 02:55:13;;;;;;;2.85;1.95;;;22.80;57.90;;;;;;4973873;28;20158;-76
2022/08/12 02:57:40;;;;;;;5.25;2.05;;;22.80;57.70;;;;;;4956512;28;20552;-74
2022/08/12 03:00:07;;;;;;;4.15;2.00;;;22.80;57.90;;;;;;4972991;28;20023;-74
2022/08/12 03:02:34;;;;;;;4.90;1.63;;;22.80;58.00;;;;;;4973480;28;20027;-74
2022/08/12 03:05:02;;;;;;;3.20;1.42;;;22.80;57.70;;;;;;4973358;28;20106;-75
2022/08/12 03:07:42;;;;;;;4.70;1.80;;;22.70;57.50;;;;;;4973518;28;20056;-75
2022/08/12 03:10:09;;;;;;;4.78;2.38;;;22.70;57.60;;;;;;4973742;28;20050;-75
2022/08/12 03:12:42;;;;;;;4.13;2.17;;;22.70;57.80;;;;;;4973797;28;20205;-74
2022/08/12 03:15:10;;;;;;;4.28;1.70;;;22.60;58.00;;;;;;4973571;28;20123;-74
2022/08/12 03:17:55;;;;;;;5.05;2.40;;;22.60;57.70;;;;;;4973590;28;20033;-73
2022/08/12 03:20:21;;;;;;;4.18;1.88;;;22.60;57.90;;;;;;4986284;28;20034;-73
2022/08/12 03:22:50;;;;;;;5.15;2.00;;;22.60;57.80;;;;;;4993256;28;20034;-73
2022/08/12 03:25:26;;;;;;;5.50;2.53;;;22.60;58.00;;;;;;4992701;28;20034;-75
2022/08/12 03:27:54;;;;;;;7.47;2.40;;;22.50;58.30;;;;;;4992321;28;20057;-75
2022/08/12 03:30:26;;;;;;;4.85;2.22;;;22.50;58.40;;;;;;4992612;28;20026;-75
2022/08/12 03:32:53;;;;;;;4.65;1.90;;;22.50;58.60;;;;;;4992765;28;20058;-75
2022/08/12 03:35:29;;;;;;;5.63;2.53;;;22.50;58.30;;;;;;4992766;28;20023;-75
2022/08/12 03:37:58;;;;;;;2.53;1.67;;;22.50;58.40;;;;;;4992285;28;20053;-75
2022/08/12 04:00:24;;;;;;;3.85;2.22;;;22.30;58.50;;;;;;4992463;28;20116;-75
2022/08/12 04:02:59;;;;;;;4.15;2.25;;;22.40;58.40;;;;;;4991508;28;20023;-75
2022/08/12 04:05:26;;;;;;;5.32;2.10;;;22.40;58.50;;;;;;4992022;28;20026;-75
2022/08/12 04:07:52;;;;;;;6.93;2.40;;;22.40;58.40;;;;;;4991592;28;20027;-75
2022/08/12 04:10:21;;;;;;;3.17;1.88;;;22.30;58.40;;;;;;4991941;28;20058;-75
2022/08/12 04:13:18;;;;;;;4.88;2.53;;;22.30;58.30;;;;;;4991537;28;20030;-76
2022/08/12 04:15:45;;;;;;;5.97;2.58;;;22.30;58.60;;;;;;4990893;28;20472;-75
2022/08/12 04:18:12;;;;;;;4.82;2.67;;;22.30;58.40;;;;;;4991671;28;20026;-75
2022/08/12 04:20:41;;;;;;;3.78;2.40;;;22.30;58.50;;;;;;4991515;28;20385;-75
2022/08/12 04:23:09;;;;;;;5.75;2.63;;;22.30;58.40;;;;;;4991499;28;20045;-75
2022/08/12 04:25:38;;;;;;;4.72;2.75;;;22.30;58.40;;;;;;4966655;28;20484;-74
2022/08/12 04:28:06;;;;;;;6.05;2.40;;;22.20;58.40;;;;;;4971762;28;20035;-74
2022/08/12 04:30:31;;;;;;;4.35;2.30;;;22.20;58.40;;;;;;4972151;28;20081;-74
2022/08/12 04:32:58;;;;;;;4.00;1.90;;;22.20;58.30;;;;;;4971716;28;20412;-75
2022/08/12 04:35:24;;;;;;;4.40;2.30;;;22.20;58.20;;;;;;4972131;28;20022;-75
2022/08/12 04:37:53;;;;;;;4.28;2.28;;;22.20;58.00;;;;;;4991335;28;20049;-75
2022/08/12 04:40:22;;;;;;;4.75;2.42;;;22.20;58.10;;;;;;4991534;28;20385;-74
2022/08/12 04:42:47;;;;;;;5.72;2.58;;;22.20;58.00;;;;;;4991133;28;20113;-75
2022/08/12 04:45:13;;;;;;;3.88;2.10;;;22.20;58.00;;;;;;4971787;28;20129;-75
2022/08/12 04:47:38;;;;;;;6.72;2.30;;;22.20;57.90;;;;;;4971657;28;20057;-74
2022/08/12 04:50:06;;;;;;;6.25;3.33;;;22.20;57.80;;;;;;4971646;28;20089;-74
2022/08/12 04:52:32;;;;;;;5.07;2.15;;;22.20;57.70;;;;;;4988159;28;20493;-75
2022/08/12 04:54:57;;;;;;;6.22;2.30;;;22.30;57.60;;;;;;4991412;28;20030;-75
2022/08/12 04:57:23;;;;;;;4.30;2.20;;;22.30;57.40;;;;;;4991800;28;20366;-75
2022/08/12 04:59:49;;;;;;;5.35;2.88;;;22.30;57.20;;;;;;4992164;28;20033;-74
2022/08/12 05:02:16;;;;;;;4.20;2.33;;;22.30;56.90;;;;;;4992278;28;20129;-74
2022/08/12 05:04:42;;;;;;;5.63;2.45;;;22.40;56.80;;;;;;4991599;28;20049;-72
2022/08/12 05:07:08;;;;;;;4.32;2.40;;;22.40;56.50;;;;;;4993646;28;20489;-74
2022/08/12 05:09:35;;;;;;;5.68;2.85;;;22.50;56.40;;;;;;4992002;28;20034;-74
2022/08/12 05:12:02;;;;;;;6.40;3.20;;;22.50;56.20;;;;;;4962004;28;20030;-73
2022/08/12 05:14:27;;;;;;;6.45;3.00;;;22.60;56.10;;;;;;4971140;28;20109;-74
2022/08/12 05:16:53;;;;;;;4.88;2.88;;;22.60;55.90;;;;;;4971295;28;20113;-75
2022/08/12 05:19:20;;;;;;;4.47;2.47;;;22.60;55.70;;;;;;4971383;28;20042;-74
2022/08/12 05:21:45;;;;;;;6.13;2.88;;;22.70;55.70;;;;;;4986039;28;20034;-74
2022/08/12 05:24:11;;;;;;;7.03;2.42;;;22.70;55.70;;;;;;4990502;28;20038;-75
2022/08/12 05:26:36;;;;;;;3.33;1.92;;;22.80;55.80;;;;;;4990811;28;20081;-74
2022/08/12 05:29:02;;;;;;;6.03;2.88;;;22.80;55.50;;;;;;4990752;28;20030;-75
2022/08/12 05:31:29;;;;;;;5.20;2.83;;;22.90;55.40;;;;;;4990426;28;20023;-74
2022/08/12 05:33:55;;;;;;;5.97;2.78;;;22.90;55.40;;;;;;4990196;28;20080;-75
2022/08/12 05:36:21;;;;;;;4.13;2.45;;;22.90;55.30;;;;;;4982116;28;20031;-75
2022/08/12 05:38:55;;;;;;;5.70;2.95;;;22.90;55.40;;;;;;4973762;28;20088;-74
2022/08/12 05:41:29;;;;;;;5.55;2.78;;;22.90;55.50;;;;;;4961717;28;20033;-74
2022/08/12 05:44:15;;;;;;;3.92;2.10;;;22.90;55.40;;;;;;4960352;28;20065;-74
2022/08/12 05:46:41;;;;;;;9.15;3.30;;;23.00;55.40;;;;;;4979817;28;20058;-74
2022/08/12 05:49:07;;;;;;;5.30;2.50;;;23.00;55.30;;;;;;4980288;28;20041;-75
2022/08/12 05:51:36;;;;;;;6.32;2.75;;;23.00;55.60;;;;;;4975231;28;20401;-74
2022/08/12 05:54:02;;;;;;;5.35;2.63;;;23.00;55.40;;;;;;4969987;28;20422;-74
2022/08/12 05:56:30;;;;;;;5.25;2.67;;;23.10;55.50;;;;;;4978659;28;20029;-75
2022/08/12 05:59:00;;;;;;;7.07;2.75;;;23.20;55.40;;;;;;4983554;28;20026;-75
2022/08/12 06:01:27;;;;;;;5.90;3.00;;;23.30;55.20;;;;;;4989658;28;20076;-75
2022/08/12 06:03:53;;;;;;;4.68;2.70;;;23.40;55.00;;;;;;4989161;28;20587;-73
2022/08/12 06:06:20;;;;;;;4.55;2.70;;;23.50;54.80;;;;;;4984820;28;20031;-75
2022/08/12 06:08:47;;;;;;;6.93;2.88;;;23.60;54.60;;;;;;4969904;28;20023;-77
2022/08/12 06:11:14;;;;;;;3.63;1.95;;;23.70;54.10;;;;;;4977323;28;20054;-75
2022/08/12 06:13:42;;;;;;;7.40;3.10;;;23.70;54.10;;;;;;4988835;28;20034;-76
2022/08/12 06:16:09;;;;;;;7.32;2.80;;;23.80;54.00;;;;;;4993666;28;20029;-76
2022/08/12 06:18:38;;;;;;;5.82;2.80;;;23.90;53.80;;;;;;4993970;28;20455;-76
2022/08/12 06:21:06;;;;;;;4.53;2.20;;;24.00;54.00;;;;;;4993960;28;20027;-76
2022/08/12 06:23:31;;;;;;;5.55;2.67;;;24.10;53.70;;;;;;4993062;28;20065;-75
2022/08/12 06:25:58;;;;;;;6.90;3.47;;;24.20;53.20;;;;;;4994101;28;20057;-74
2022/08/12 06:28:24;;;;;;;6.90;2.60;;;24.30;53.00;;;;;;4993911;28;20507;-75
2022/08/12 06:30:51;;;;;;;6.22;3.10;;;24.30;52.50;;;;;;4993569;28;20022;-75
2022/08/12 06:33:17;;;;;;;7.70;3.17;;;24.40;52.10;;;;;;4993018;28;20485;-74
2022/08/12 06:35:43;;;;;;;8.70;3.05;;;24.50;52.20;;;;;;4991956;28;20025;-75
2022/08/12 06:38:16;;;;;;;6.90;2.35;;;24.60;51.80;;;;;;4992692;28;20944;-76
2022/08/12 06:43:28;;;;;;;5.15;2.50;;;24.80;51.90;;;;;;4992776;28;20132;-75
2022/08/12 06:45:56;;;;;;;5.88;2.10;;;24.90;52.30;;;;;;4992486;28;20480;-74
2022/08/12 06:48:26;;;;;;;8.75;2.85;;;25.10;52.20;;;;;;4993008;28;20031;-75
2022/08/12 06:50:53;;;;;;;6.57;1.80;;;25.20;51.60;;;;;;4993245;28;20390;-75
2022/08/12 06:53:19;;;;;;;7.40;2.55;;;25.40;51.30;;;;;;4993422;28;20023;-73
2022/08/12 06:55:44;;;;;;;9.30;2.50;;;25.60;51.00;;;;;;4993226;28;20058;-75
2022/08/12 06:58:10;;;;;;;9.77;2.50;;;25.80;50.80;;;;;;4988756;28;20030;-75
2022/08/12 07:00:36;;;;;;;9.82;3.03;;;26.00;50.40;;;;;;4973595;28;20019;-76
2022/08/12 07:03:04;;;;;;;5.97;2.58;;;26.20;50.00;;;;;;4973187;28;20555;-74
2022/08/12 07:05:31;;;;;;;7.38;2.95;;;26.20;49.00;;;;;;4988222;28;20481;-76
2022/08/12 07:08:02;;;;;;;6.47;2.47;;;26.20;49.10;;;;;;4992989;28;20076;-76
2022/08/12 07:10:31;;;;;;;6.50;2.92;;;26.30;48.80;;;;;;4993004;28;20026;-74
2022/08/12 07:13:00;;;;;;;4.70;2.55;;;26.30;48.20;;;;;;4992031;28;20044;-74
2022/08/12 07:15:27;;;;;;;4.63;2.72;;;26.40;48.10;;;;;;4993191;28;20041;-76
2022/08/12 07:20:35;;;;;;;4.00;2.40;;;26.50;47.70;;;;;;4988905;28;20045;-76
2022/08/12 07:23:05;;;;;;;3.80;2.13;;;26.70;47.80;;;;;;4988035;28;20027;-75
2022/08/12 07:25:35;;;;;;;4.95;2.03;;;26.90;47.50;;;;;;4996864;28;20038;-74
2022/08/12 07:28:04;;;;;;;5.15;2.20;;;27.10;47.20;;;;;;4996444;28;20774;-76
2022/08/12 07:30:34;;;;;;;5.82;3.13;;;27.20;46.70;;;;;;4996383;28;20030;-73
2022/08/12 07:33:02;;;;;;;6.55;3.22;;;27.30;46.10;;;;;;4986493;28;20031;-74
2022/08/12 07:35:29;;;;;;;7.30;2.90;;;27.40;45.50;;;;;;4989246;28;20121;-75
2022/08/12 07:37:56;;;;;;;7.10;3.17;;;27.50;45.30;;;;;;4977947;28;20033;-76
2022/08/12 07:40:23;;;;;;;5.85;3.13;;;27.60;44.70;;;;;;4974959;28;20039;-75
2022/08/12 07:42:48;;;;;;;10.55;3.72;;;27.60;44.80;;;;;;4972831;28;20053;-75
2022/08/12 07:45:16;;;;;;;7.45;3.30;;;27.60;44.70;;;;;;4987500;28;20493;-73
2022/08/12 07:47:42;;;;;;;7.30;4.00;;;27.70;45.00;;;;;;4989082;28;20051;-71
2022/08/12 07:50:13;;;;;;;6.68;3.00;;;27.70;44.60;;;;;;4980258;28;20018;-72
2022/08/12 07:52:42;;;;;;;5.22;3.15;;;27.70;45.60;;;;;;4996382;28;20022;-73
2022/08/12 07:55:12;;;;;;;5.97;3.40;;;27.80;45.70;;;;;;4997996;28;20030;-74
2022/08/12 07:57:49;;;;;;;6.63;2.85;;;28.00;45.30;;;;;;4995047;28;20338;-75
2022/08/12 08:00:15;;;;;;;4.43;2.55;;;28.10;45.10;;;;;;4974211;28;20019;-74
2022/08/12 08:02:43;;;;;;;5.70;2.65;;;28.30;45.00;;;;;;4979881;28;20080;-75
2022/08/12 08:05:10;;;;;;;7.78;3.22;;;28.50;44.70;;;;;;4996519;28;20037;-78
2022/08/12 08:07:37;;;;;;;6.60;3.28;;;28.70;43.90;;;;;;5000168;28;20031;-78
2022/08/12 08:10:09;;;;;;;10.52;2.78;;;28.80;42.50;;;;;;4990140;28;20037;-78
2022/08/12 08:12:56;;;;;;;4.70;2.42;;;28.90;42.50;;;;;;4992148;28;20026;-77
2022/08/12 08:15:25;;;;;;;4.70;2.70;;;28.90;42.90;;;;;;4983163;28;20052;-77
2022/08/12 08:18:03;;;;;;;7.53;3.45;;;29.10;44.10;;;;;;4984837;28;20022;-79
2022/08/12 08:20:40;;;;;;;5.65;2.58;;;29.30;42.80;;;;;;4997974;28;20094;-77
2022/08/12 08:23:12;;;;;;;5.60;3.75;;;29.40;43.70;;;;;;4977426;28;20027;-77
2022/08/12 08:25:38;;;;;;;9.18;3.67;;;29.40;41.80;;;;;;4978102;28;20035;-77
2022/08/12 08:28:17;;;;;;;4.82;2.35;;;29.40;40.70;;;;;;4978326;28;20030;-78
2022/08/12 08:30:46;;;;;;;5.05;2.60;;;29.40;42.10;;;;;;4978905;28;20022;-78
2022/08/12 08:33:13;;;;;;;6.68;2.83;;;29.50;43.70;;;;;;4978362;28;20030;-77
2022/08/12 08:35:40;;;;;;;6.10;3.45;;;29.70;43.60;;;;;;4980432;28;20049;-77
2022/08/12 08:38:16;;;;;;;10.18;3.60;;;29.90;42.70;;;;;;4980490;28;20035;-78
2022/08/12 08:43:29;;;;;;;7.45;3.30;;;30.20;41.90;;;;;;4976665;28;20577;-78
2022/08/12 08:45:56;;;;;;;5.63;3.30;;;30.30;42.20;;;;;;4973807;28;20134;-77
2022/08/12 08:48:24;;;;;;;6.07;2.92;;;30.40;42.20;;;;;;4957940;28;20057;-78
2022/08/12 08:50:50;;;;;;;6.25;3.15;;;30.60;41.50;;;;;;4974217;28;20073;-77
2022/08/12 08:53:17;;;;;;;7.70;3.35;;;30.60;39.40;;;;;;4957664;28;20054;-78
2022/08/12 08:55:43;;;;;;;7.82;3.28;;;30.80;40.30;;;;;;4955770;28;20077;-79
2022/08/12 08:58:10;;;;;;;9.13;2.92;;;30.90;40.90;;;;;;4985067;28;20046;-78
2022/08/12 09:00:39;;;;;;;3.85;2.33;;;31.00;40.10;;;;;;4992718;28;20034;-78
2022/08/12 09:03:06;;;;;;;4.30;2.50;;;31.10;41.80;;;;;;4996077;28;20046;-77
2022/08/12 09:05:33;;;;;;;7.00;2.40;;;31.30;43.80;;;;;;5000141;28;20026;-78
2022/08/12 09:08:01;;;;;;;4.53;2.20;;;31.50;41.00;;;;;;4999542;28;20027;-79
2022/08/12 09:10:27;;;;;;;4.90;2.20;;;31.60;42.30;;;;;;4997663;28;20103;-79
2022/08/12 09:15:40;;;;;;;4.18;2.03;;;31.90;38.30;;;;;;4996055;28;20049;-77
2022/08/12 09:18:09;;;;;;;3.33;1.90;;;32.00;41.30;;;;;;4988932;28;20026;-78
2022/08/12 09:20:37;;;;;;;5.90;2.25;;;32.10;42.90;;;;;;4984820;28;20460;-79
2022/08/12 09:23:09;;;;;;;8.13;2.50;;;32.20;37.80;;;;;;4963519;28;20137;-78
2022/08/12 09:25:38;;;;;;;5.78;2.65;;;32.40;39.80;;;;;;4988561;28;20070;-78
2022/08/12 09:28:09;;;;;;;6.32;2.40;;;32.60;44.10;;;;;;4987301;28;20026;-79
2022/08/12 09:30:35;;;;;;;5.70;2.60;;;32.70;36.40;;;;;;4981318;28;20113;-78
2022/08/12 09:33:01;;;;;;;7.07;2.15;;;32.90;35.20;;;;;;4996023;28;20081;-79
2022/08/12 09:35:39;;;;;;;4.47;2.00;;;33.10;43.80;;;;;;4993603;28;20035;-78
2022/08/12 09:38:06;;;;;;;6.57;2.58;;;33.20;34.70;;;;;;4972239;28;20034;-78
2022/08/12 09:40:33;;;;;;;4.60;2.42;;;33.20;34.00;;;;;;4994037;28;20046;-77
2022/08/12 09:45:47;;;;;;;4.15;1.75;;;33.40;33.40;;;;;;4989609;28;20088;-77
2022/08/12 09:48:15;;;;;;;;;;;33.50;40.90;;;;;;4966845;28;20370;-79
2022/08/12 09:50:50;;;;;;;5.20;2.60;;;33.40;40.10;;;;;;4975428;28;19913;-79
2022/08/12 09:53:23;;;;;;;4.60;2.15;;;33.40;35.40;;;;;;4972198;28;20023;-78
2022/08/12 09:55:51;;;;;;;5.88;2.38;;;33.40;34.80;;;;;;4976314;28;20093;-77
2022/08/12 09:58:27;;;;;;;6.55;2.08;;;33.40;31.70;;;;;;4977402;28;20027;-79
2022/08/12 10:00:54;;;;;;;5.72;2.38;;;33.40;37.30;;;;;;4959780;28;20094;-80
2022/08/12 10:03:21;;;;;;;5.13;1.85;;;33.60;39.60;;;;;;4977345;28;20089;-78
2022/08/12 10:05:47;;;;;;;5.15;1.95;;;33.80;42.10;;;;;;4977574;28;20031;-79
2022/08/12 10:08:15;;;;;;;4.18;2.30;;;33.90;36.80;;;;;;4973734;28;20459;-78
2022/08/12 10:13:42;;;;;;;4.95;2.13;;;33.90;32.80;;;;;;4973239;28;20090;-80
2022/08/12 10:16:11;;;;;;;;;;;34.00;32.30;;;;;;4975437;28;20023;-79
2022/08/12 10:18:42;;;;;;;6.30;1.92;;;34.20;41.00;;;;;;4971154;28;19914;-79
2022/08/12 10:21:19;;;;;;;3.97;2.03;;;34.40;43.20;;;;;;4974104;28;20026;-78
2022/08/12 10:23:47;;;;;;;3.95;1.98;;;34.60;40.40;;;;;;4971946;28;20047;-77
2022/08/12 10:31:44;;;;;;;3.58;1.67;;;34.80;44.40;;;;;;4972193;28;20486;-80
2022/08/12 10:34:12;;;;;;;6.15;2.08;;;34.70;37.60;;;;;;4976120;28;20040;-79
2022/08/12 10:36:39;;;;;;;4.75;2.22;;;34.70;40.50;;;;;;4969996;28;20485;-80
2022/08/12 10:39:06;;;;;;;10.43;2.45;;;34.60;39.00;;;;;;4999635;28;20045;-79
2022/08/12 10:44:17;;;;;;;5.28;2.25;;;34.70;36.20;;;;;;4997345;28;20097;-79
2022/08/12 10:46:44;;;;;;;7.55;2.33;;;34.80;42.50;;;;;;4993980;28;20046;-79
2022/08/12 10:49:11;;;;;;;3.63;1.98;;;34.70;36.30;;;;;;4992886;28;20018;-79
2022/08/12 10:51:40;;;;;;;3.95;1.98;;;34.80;39.40;;;;;;4991723;28;20528;-78
2022/08/12 10:54:06;;;;;;;4.95;2.15;;;34.90;40.70;;;;;;4992010;28;20077;-78
2022/08/12 10:56:33;;;;;;;5.13;2.00;;;34.90;41.90;;;;;;4991784;28;20121;-79
2022/08/12 10:59:02;;;;;;;4.55;1.80;;;34.90;40.80;;;;;;4992031;28;20544;-79
2022/08/12 11:01:30;;;;;;;3.97;1.90;;;35.00;44.60;;;;;;4978188;28;20501;-79
2022/08/12 11:03:57;;;;;;;5.63;2.53;;;34.90;35.50;;;;;;4995252;28;20029;-78
2022/08/12 11:06:23;;;;;;;6.10;2.38;;;34.90;33.90;;;;;;4995582;28;20026;-80
2022/08/12 11:08:49;;;;;;;4.10;1.98;;;34.90;34.10;;;;;;4995471;28;20053;-80
2022/08/12 11:11:19;;;;;;;2.90;1.90;;;34.90;35.20;;;;;;4995920;28;20019;-79
2022/08/12 11:13:45;;;;;;;4.57;1.83;;;35.00;40.90;;;;;;4994792;28;20026;-80
2022/08/12 11:16:12;;;;;;;3.83;1.90;;;35.00;40.30;;;;;;4994492;28;20484;-80
2022/08/12 11:18:38;;;;;;;2.95;1.65;;;35.10;43.70;;;;;;4995089;28;20033;-78
2022/08/12 11:21:04;;;;;;;6.07;2.05;;;35.20;34.80;;;;;;4995445;28;20026;-80
2022/08/12 11:23:30;;;;;;;6.10;1.88;;;35.30;36.70;;;;;;4996874;28;20033;-78
2022/08/12 11:25:55;;;;;;;4.38;2.00;;;35.40;43.70;;;;;;4996554;28;20113;-79
2022/08/12 11:28:21;;;;;;;4.90;2.03;;;35.50;36.60;;;;;;4997056;28;20033;-78
2022/08/12 11:30:47;;;;;;;5.07;2.25;;;35.60;39.30;;;;;;4996300;28;20049;-78
2022/08/12 11:33:14;;;;;;;4.85;1.88;;;35.70;38.50;;;;;;4993514;28;20101;-79
2022/08/12 11:35:42;;;;;;;3.85;1.80;;;35.90;43.80;;;;;;4997913;28;20038;-79
2022/08/12 11:38:09;;;;;;;8.25;2.38;;;36.00;39.90;;;;;;4999276;28;20481;-79
2022/08/12 11:40:35;;;;;;;4.03;2.08;;;36.00;41.90;;;;;;4999423;28;20057;-79
2022/08/12 11:43:03;;;;;;;6.65;2.03;;;35.90;34.40;;;;;;4997837;28;20026;-78
2022/08/12 11:45:29;;;;;;;3.28;1.52;;;35.90;33.80;;;;;;4979997;28;20125;-79
2022/08/12 11:47:56;;;;;;;3.25;2.05;;;35.90;39.10;;;;;;4997681;28;20029;-80
2022/08/12 11:50:22;;;;;;;5.90;2.00;;;36.10;43.10;;;;;;4995620;28;20037;-78
2022/08/12 11:52:49;;;;;;;3.60;1.80;;;36.10;35.60;;;;;;4999924;28;20113;-79
2022/08/12 11:55:16;;;;;;;4.25;2.30;;;36.20;34.80;;;;;;4997541;28;20029;-82
2022/08/12 11:57:55;;;;;;;3.22;1.90;;;36.30;33.30;;;;;;4997280;28;20389;-78
2022/08/12 12:00:21;;;;;;;3.10;2.17;;;36.20;43.10;;;;;;4987290;28;20113;-80
2022/08/12 12:02:47;;;;;;;4.57;1.70;;;36.30;31.90;;;;;;4992229;28;20042;-76
2022/08/12 12:05:15;;;;;;;4.18;1.88;;;36.30;31.20;;;;;;4959553;28;20405;-77
2022/08/12 12:07:44;;;;;;;4.45;1.80;;;36.30;34.70;;;;;;4983506;28;20026;-76
2022/08/12 12:10:19;;;;;;;5.53;2.00;;;36.30;42.70;;;;;;4992343;28;20026;-75
2022/08/12 12:12:45;;;;;;;4.80;1.67;;;36.30;45.50;;;;;;4970907;28;20577;-76
2022/08/12 12:15:12;;;;;;;7.18;2.05;;;36.40;40.70;;;;;;4972486;28;20505;-76
2022/08/12 12:17:40;;;;;;;5.65;2.28;;;36.40;31.60;;;;;;4972974;28;20023;-77
2022/08/12 12:20:08;;;;;;;5.57;2.25;;;36.40;37.30;;;;;;4974287;28;20033;-77
2022/08/12 12:22:38;;;;;;;3.75;2.35;;;36.40;35.40;;;;;;4973883;28;20019;-76
2022/08/12 12:25:05;;;;;;;6.63;2.05;;;36.50;34.00;;;;;;4972253;28;20038;-77
2022/08/12 12:28:03;;;;;;;4.63;1.85;;;36.40;45.50;;;;;;4953842;28;20034;-76
2022/08/12 12:30:29;;;;;;;4.68;2.35;;;36.50;41.30;;;;;;4917342;28;20033;-76
2022/08/12 12:32:54;;;;;;;5.28;2.20;;;36.60;35.10;;;;;;4952995;28;20019;-78
2022/08/12 12:35:20;;;;;;;4.63;1.95;;;36.50;40.40;;;;;;4953555;28;20078;-76
2022/08/12 12:37:50;;;;;;;4.82;2.15;;;36.50;34.50;;;;;;4990035;28;20029;-76
2022/08/12 12:40:16;;;;;;;5.75;1.65;;;36.60;38.20;;;;;;4973370;28;20041;-75
2022/08/12 12:42:42;;;;;;;5.78;2.25;;;36.70;36.80;;;;;;4990968;28;20440;-76
2022/08/12 12:45:08;;;;;;;3.70;1.73;;;36.90;33.90;;;;;;4991178;28;20121;-76
2022/08/12 12:47:33;;;;;;;3.47;1.77;;;37.10;44.60;;;;;;4991101;28;20382;-77
2022/08/12 12:49:59;;;;;;;7.45;2.28;;;37.20;44.10;;;;;;4991449;28;20053;-75
2022/08/12 12:52:26;;;;;;;3.67;1.70;;;37.10;31.50;;;;;;4991472;28;20027;-76
2022/08/12 12:54:54;;;;;;;6.63;2.00;;;37.00;34.20;;;;;;4973512;28;20109;-76
2022/08/12 12:57:21;;;;;;;6.07;2.20;;;37.00;38.20;;;;;;4991066;28;20027;-76
2022/08/12 13:00:13;;;;;;;3.35;1.90;;;37.10;41.10;;;;;;4990876;28;20034;-76
2022/08/12 13:02:39;;;;;;;4.07;1.80;;;37.00;42.00;;;;;;4990610;28;20111;-75
2022/08/12 13:05:06;;;;;;;4.97;2.00;;;37.40;39.10;;;;;;4991055;28;20038;-77
2022/08/12 13:07:40;;;;;;;2.90;1.73;;;37.30;38.40;;;;;;4990511;28;20026;-77
2022/08/12 13:10:07;;;;;;;4.25;1.63;;;37.30;37.80;;;;;;4992691;28;20041;-75
2022/08/12 13:12:33;;;;;;;7.50;2.25;;;37.30;45.00;;;;;;4991779;28;20028;-76
2022/08/12 13:15:02;;;;;;;3.35;2.00;;;37.40;45.00;;;;;;4991104;28;20392;-74
2022/08/12 13:17:30;;;;;;;2.35;1.70;;;37.40;40.60;;;;;;4974038;28;20069;-76
2022/08/12 13:20:05;;;;;;;5.15;1.90;;;37.20;30.60;;;;;;4994492;28;20525;-74
2022/08/12 13:22:32;;;;;;;4.80;1.88;;;37.20;41.70;;;;;;4991733;28;20031;-76
2022/08/12 13:25:00;;;;;;;3.22;1.98;;;37.20;43.40;;;;;;4973352;28;20034;-76
2022/08/12 13:27:40;;;;;;;3.57;1.80;;;37.30;40.50;;;;;;4991612;28;20436;-76
2022/08/12 13:30:12;;;;;;;3.30;1.73;;;37.30;42.10;;;;;;4991405;28;20054;-76
2022/08/12 13:32:44;;;;;;;4.22;1.98;;;37.10;41.60;;;;;;4973789;28;20026;-75
2022/08/12 13:35:12;;;;;;;5.88;1.95;;;37.00;38.60;;;;;;4973259;28;20420;-76
2022/08/12 13:37:39;;;;;;;6.85;2.95;;;37.10;45.20;;;;;;4991490;28;20060;-75
2022/08/12 13:40:09;;;;;;;4.18;1.80;;;37.10;44.00;;;;;;4990897;28;20046;-76
2022/08/12 13:42:35;;;;;;;2.10;1.52;;;37.10;39.00;;;;;;4990539;28;20026;-76
2022/08/12 13:45:01;;;;;;;7.15;1.90;;;37.10;38.80;;;;;;4971731;28;20072;-75
2022/08/12 13:47:27;;;;;;;9.18;2.53;;;37.20;42.30;;;;;;4988842;28;20054;-76
2022/08/12 13:49:52;;;;;;;6.97;2.30;;;37.20;44.60;;;;;;4988357;28;20030;-76
2022/08/12 13:52:18;;;;;;;5.95;2.72;;;37.20;44.10;;;;;;4989568;28;20068;-76
2022/08/12 13:54:46;;;;;;;5.30;1.73;;;37.10;37.30;;;;;;4990169;28;20030;-76
2022/08/12 13:57:13;;;;;;;6.10;2.05;;;37.00;35.60;;;;;;4989290;28;20077;-75
2022/08/12 13:59:40;;;;;;;8.27;2.20;;;37.20;36.90;;;;;;4989735;28;20062;-76
2022/08/12 14:02:10;;;;;;;3.05;1.83;;;37.10;29.00;;;;;;4989729;28;20030;-77
2022/08/12 14:04:38;;;;;;;4.75;2.10;;;37.00;31.20;;;;;;4973863;28;20042;-75
2022/08/12 14:07:04;;;;;;;4.15;1.88;;;36.70;29.20;;;;;;4971401;28;20050;-75
2022/08/12 14:10:34;;;;;;;4.63;2.13;;;36.70;39.60;;;;;;4989044;28;20019;-75
2022/08/12 14:12:17;;;;;;;5.97;2.22;;;36.60;29.70;;;;;;4988246;28;20556;-76
2022/08/12 14:14:49;;;;;;;4.20;2.20;;;36.50;44.90;;;;;;4988311;28;20140;-75
2022/08/12 14:17:17;;;;;;;5.07;2.38;;;36.60;35.50;;;;;;4993114;28;20106;-75
2022/08/12 14:22:30;;;;;;;6.50;2.05;;;36.60;31.80;;;;;;4978087;28;20094;-75
2022/08/12 14:24:57;;;;;;;6.97;2.10;;;36.70;41.70;;;;;;4960315;28;20106;-75
2022/08/12 14:27:24;;;;;;;7.13;2.00;;;36.90;40.80;;;;;;4978928;28;20031;-76
2022/08/12 14:29:50;;;;;;;6.13;2.22;;;36.80;42.70;;;;;;4960715;28;20019;-77
2022/08/12 14:32:16;;;;;;;6.28;2.22;;;36.90;43.20;;;;;;4981009;28;20027;-74
2022/08/12 14:34:42;;;;;;;7.55;2.30;;;36.90;38.70;;;;;;4981057;28;20022;-76
2022/08/12 14:37:08;;;;;;;4.95;2.38;;;37.00;39.80;;;;;;4982602;28;20050;-75
2022/08/12 14:39:35;;;;;;;5.32;2.00;;;37.10;38.70;;;;;;4965917;28;20057;-76
2022/08/12 14:42:01;;;;;;;5.00;2.33;;;37.00;37.50;;;;;;4984759;28;20503;-76
2022/08/12 14:44:27;;;;;;;10.13;2.30;;;36.90;41.40;;;;;;4982678;28;20030;-76